sensor_id;sensor_type;location;lat;lon;timestamp;pressure;altitude;pressure_sealevel;temperature
55038;BMP280;40937;53.594;10.034;2023-07-13T00:01:55;101385.22;;;18.15
55038;BMP280;40937;53.594;10.034;2023-07-13T00:04:24;101380.91;;;18.24
55038;BMP280;40937;53.594;10.034;2023-07-13T00:06:52;101391.59;;;18.19
55038;BMP280;40937;53.594;10.034;2023-07-13T00:09:21;101384.69;;;18.13
55038;BMP280;40937;53.594;10.034;2023-07-13T00:11:51;101379.31;;;18.29
55038;BMP280;40937;53.594;10.034;2023-07-13T00:14:19;101382.94;;;18.53
55038;BMP280;40937;53.594;10.034;2023-07-13T00:16:46;101379.00;;;18.40
55038;BMP280;40937;53.594;10.034;2023-07-13T00:19:14;101379.06;;;18.10
55038;BMP280;40937;53.594;10.034;2023-07-13T00:21:41;101381.00;;;17.89
55038;BMP280;40937;53.594;10.034;2023-07-13T00:24:11;101381.25;;;17.82
55038;BMP280;40937;53.594;10.034;2023-07-13T00:26:41;101386.31;;;17.73
55038;BMP280;40937;53.594;10.034;2023-07-13T00:29:11;101382.31;;;17.81
55038;BMP280;40937;53.594;10.034;2023-07-13T00:31:39;101383.13;;;17.71
55038;BMP280;40937;53.594;10.034;2023-07-13T00:34:06;101375.59;;;17.99
55038;BMP280;40937;53.594;10.034;2023-07-13T00:36:34;101384.16;;;17.96
55038;BMP280;40937;53.594;10.034;2023-07-13T00:39:01;101381.75;;;17.94
55038;BMP280;40937;53.594;10.034;2023-07-13T00:41:31;101392.72;;;17.88
55038;BMP280;40937;53.594;10.034;2023-07-13T00:44:00;101390.06;;;17.77
55038;BMP280;40937;53.594;10.034;2023-07-13T00:46:28;101393.00;;;17.81
55038;BMP280;40937;53.594;10.034;2023-07-13T00:48:57;101387.38;;;17.88
55038;BMP280;40937;53.594;10.034;2023-07-13T00:51:31;101383.66;;;17.84
55038;BMP280;40937;53.594;10.034;2023-07-13T00:54:05;101391.94;;;17.87
55038;BMP280;40937;53.594;10.034;2023-07-13T00:56:33;101384.69;;;18.13
55038;BMP280;40937;53.594;10.034;2023-07-13T00:59:06;101386.25;;;18.14
55038;BMP280;40937;53.594;10.034;2023-07-13T01:01:34;101389.00;;;17.68
55038;BMP280;40937;53.594;10.034;2023-07-13T01:04:02;101386.84;;;17.50
55038;BMP280;40937;53.594;10.034;2023-07-13T01:06:34;101386.31;;;17.37
55038;BMP280;40937;53.594;10.034;2023-07-13T01:09:03;101393.22;;;17.33
55038;BMP280;40937;53.594;10.034;2023-07-13T01:11:31;101392.16;;;17.29
55038;BMP280;40937;53.594;10.034;2023-07-13T01:13:58;101389.53;;;17.65
55038;BMP280;40937;53.594;10.034;2023-07-13T01:16:31;101396.72;;;17.70
55038;BMP280;40937;53.594;10.034;2023-07-13T01:18:58;101387.13;;;17.64
55038;BMP280;40937;53.594;10.034;2023-07-13T01:21:31;101390.84;;;17.83
55038;BMP280;40937;53.594;10.034;2023-07-13T01:23:59;101388.72;;;17.75
55038;BMP280;40937;53.594;10.034;2023-07-13T01:26:26;101389.50;;;17.75
55038;BMP280;40937;53.594;10.034;2023-07-13T01:28:53;101391.94;;;17.72
55038;BMP280;40937;53.594;10.034;2023-07-13T01:31:22;101391.09;;;17.81
55038;BMP280;40937;53.594;10.034;2023-07-13T01:33:51;101395.91;;;17.79
55038;BMP280;40937;53.594;10.034;2023-07-13T01:36:20;101396.19;;;17.83
55038;BMP280;40937;53.594;10.034;2023-07-13T01:38:49;101386.06;;;17.85
55038;BMP280;40937;53.594;10.034;2023-07-13T01:41:16;101390.06;;;17.83
55038;BMP280;40937;53.594;10.034;2023-07-13T01:43:43;101395.91;;;17.90
55038;BMP280;40937;53.594;10.034;2023-07-13T01:46:11;101394.84;;;17.91
55038;BMP280;40937;53.594;10.034;2023-07-13T01:48:38;101392.72;;;17.93
55038;BMP280;40937;53.594;10.034;2023-07-13T01:51:05;101383.09;;;18.02
55038;BMP280;40937;53.594;10.034;2023-07-13T01:53:32;101381.75;;;18.05
55038;BMP280;40937;53.594;10.034;2023-07-13T01:56:03;101384.16;;;17.96
55038;BMP280;40937;53.594;10.034;2023-07-13T01:58:30;101376.41;;;17.99
55038;BMP280;40937;53.594;10.034;2023-07-13T02:00:57;101377.22;;;17.95
55038;BMP280;40937;53.594;10.034;2023-07-13T02:03:25;101371.63;;;18.01
55038;BMP280;40937;53.594;10.034;2023-07-13T02:05:52;101374.03;;;18.03
55038;BMP280;40937;53.594;10.034;2023-07-13T02:08:19;101378.56;;;18.02
55038;BMP280;40937;53.594;10.034;2023-07-13T02:10:46;101373.22;;;17.92
55038;BMP280;40937;53.594;10.034;2023-07-13T02:13:15;101385.78;;;17.92
55038;BMP280;40937;53.594;10.034;2023-07-13T02:15:42;101389.00;;;17.89
55038;BMP280;40937;53.594;10.034;2023-07-13T02:18:09;101387.88;;;18.05
55038;BMP280;40937;53.594;10.034;2023-07-13T02:20:37;101385.22;;;18.10
55038;BMP280;40937;53.594;10.034;2023-07-13T02:23:04;101388.69;;;18.11
55038;BMP280;40937;53.594;10.034;2023-07-13T02:25:31;101399.09;;;18.12
55038;BMP280;40937;53.594;10.034;2023-07-13T02:27:58;101396.97;;;18.04
55038;BMP280;40937;53.594;10.034;2023-07-13T02:30:27;101393.78;;;17.92
55038;BMP280;40937;53.594;10.034;2023-07-13T02:32:55;101398.88;;;17.83
55038;BMP280;40937;53.594;10.034;2023-07-13T02:35:23;101395.91;;;17.69
55038;BMP280;40937;53.594;10.034;2023-07-13T02:37:50;101392.19;;;17.91
55038;BMP280;40937;53.594;10.034;2023-07-13T02:40:17;101394.88;;;17.80
55038;BMP280;40937;53.594;10.034;2023-07-13T02:42:45;101392.19;;;17.91
55038;BMP280;40937;53.594;10.034;2023-07-13T02:45:12;101390.56;;;17.90
55038;BMP280;40937;53.594;10.034;2023-07-13T02:47:42;101390.06;;;17.83
55038;BMP280;40937;53.594;10.034;2023-07-13T02:50:11;101391.09;;;17.81
55038;BMP280;40937;53.594;10.034;2023-07-13T02:52:38;101393.78;;;17.81
55038;BMP280;40937;53.594;10.034;2023-07-13T02:55:06;101377.78;;;17.76
55038;BMP280;40937;53.594;10.034;2023-07-13T02:57:33;101385.78;;;17.71
55038;BMP280;40937;53.594;10.034;2023-07-13T03:00:01;101390.31;;;17.81
55038;BMP280;40937;53.594;10.034;2023-07-13T03:02:31;101394.28;;;17.94
55038;BMP280;40937;53.594;10.034;2023-07-13T03:05:00;101393.53;;;17.93
55038;BMP280;40937;53.594;10.034;2023-07-13T03:07:29;101395.91;;;17.79
55038;BMP280;40937;53.594;10.034;2023-07-13T03:09:57;101393.78;;;17.76
55038;BMP280;40937;53.594;10.034;2023-07-13T03:12:32;101388.69;;;17.59
55038;BMP280;40937;53.594;10.034;2023-07-13T03:15:02;101391.94;;;17.67
55038;BMP280;40937;53.594;10.034;2023-07-13T03:17:29;101379.88;;;17.69
55038;BMP280;40937;53.594;10.034;2023-07-13T03:19:57;101383.66;;;17.63
55038;BMP280;40937;53.594;10.034;2023-07-13T03:22:26;101382.59;;;17.59
55038;BMP280;40937;53.594;10.034;2023-07-13T03:24:55;101381.50;;;17.60
55038;BMP280;40937;53.594;10.034;2023-07-13T03:27:22;101390.06;;;17.67
55038;BMP280;40937;53.594;10.034;2023-07-13T03:29:50;101386.31;;;17.58
55038;BMP280;40937;53.594;10.034;2023-07-13T03:32:18;101384.72;;;17.62
55038;BMP280;40937;53.594;10.034;2023-07-13T03:34:45;101383.91;;;17.72
55038;BMP280;40937;53.594;10.034;2023-07-13T03:37:13;101390.59;;;17.74
55038;BMP280;40937;53.594;10.034;2023-07-13T03:39:42;101390.06;;;17.72
55038;BMP280;40937;53.594;10.034;2023-07-13T03:42:09;101386.84;;;17.75
55038;BMP280;40937;53.594;10.034;2023-07-13T03:44:36;101385.53;;;17.73
55038;BMP280;40937;53.594;10.034;2023-07-13T03:47:04;101377.78;;;17.61
55038;BMP280;40937;53.594;10.034;2023-07-13T03:49:34;101387.91;;;17.85
55038;BMP280;40937;53.594;10.034;2023-07-13T03:52:02;101382.31;;;17.60
55038;BMP280;40937;53.594;10.034;2023-07-13T03:54:30;101384.44;;;17.53
55038;BMP280;40937;53.594;10.034;2023-07-13T03:57:02;101391.66;;;17.53
55038;BMP280;40937;53.594;10.034;2023-07-13T03:59:32;101391.09;;;17.46
55038;BMP280;40937;53.594;10.034;2023-07-13T04:02:00;101395.34;;;17.42
55038;BMP280;40937;53.594;10.034;2023-07-13T04:04:27;101396.69;;;17.49
55038;BMP280;40937;53.594;10.034;2023-07-13T04:06:54;101399.91;;;17.56
55038;BMP280;40937;53.594;10.034;2023-07-13T04:09:21;101400.16;;;17.60
55038;BMP280;40937;53.594;10.034;2023-07-13T04:11:48;101398.06;;;17.67
55038;BMP280;40937;53.594;10.034;2023-07-13T04:14:17;101397.50;;;17.60
55038;BMP280;40937;53.594;10.034;2023-07-13T04:16:44;101392.44;;;17.58
55038;BMP280;40937;53.594;10.034;2023-07-13T04:19:13;101394.84;;;17.65
55038;BMP280;40937;53.594;10.034;2023-07-13T04:21:40;101397.50;;;17.70
55038;BMP280;40937;53.594;10.034;2023-07-13T04:24:07;101390.88;;;17.73
55038;BMP280;40937;53.594;10.034;2023-07-13T04:26:34;101391.09;;;17.66
55038;BMP280;40937;53.594;10.034;2023-07-13T04:29:04;101392.19;;;17.70
55038;BMP280;40937;53.594;10.034;2023-07-13T04:31:33;101383.66;;;17.68
55038;BMP280;40937;53.594;10.034;2023-07-13T04:34:00;101390.06;;;17.72
55038;BMP280;40937;53.594;10.034;2023-07-13T04:36:28;101391.38;;;17.75
55038;BMP280;40937;53.594;10.034;2023-07-13T04:38:55;101394.88;;;17.80
55038;BMP280;40937;53.594;10.034;2023-07-13T04:41:23;101390.56;;;17.79
55038;BMP280;40937;53.594;10.034;2023-07-13T04:43:50;101386.84;;;17.80
55038;BMP280;40937;53.594;10.034;2023-07-13T04:46:17;101387.91;;;17.85
55038;BMP280;40937;53.594;10.034;2023-07-13T04:48:46;101390.06;;;17.88
55038;BMP280;40937;53.594;10.034;2023-07-13T04:51:16;101399.13;;;17.92
55038;BMP280;40937;53.594;10.034;2023-07-13T04:53:44;101398.84;;;17.98
55038;BMP280;40937;53.594;10.034;2023-07-13T04:56:11;101399.09;;;18.02
55038;BMP280;40937;53.594;10.034;2023-07-13T04:58:38;101397.50;;;18.01
55038;BMP280;40937;53.594;10.034;2023-07-13T05:01:06;101399.63;;;18.04
55038;BMP280;40937;53.594;10.034;2023-07-13T05:03:35;101401.78;;;18.07
55038;BMP280;40937;53.594;10.034;2023-07-13T05:06:06;101399.91;;;18.13
55038;BMP280;40937;53.594;10.034;2023-07-13T05:08:35;101411.34;;;18.18
55038;BMP280;40937;53.594;10.034;2023-07-13T05:11:04;101407.63;;;18.19
55038;BMP280;40937;53.594;10.034;2023-07-13T05:13:32;101411.88;;;18.20
55038;BMP280;40937;53.594;10.034;2023-07-13T05:16:02;101413.50;;;18.27
55038;BMP280;40937;53.594;10.034;2023-07-13T05:18:30;101415.06;;;18.33
55038;BMP280;40937;53.594;10.034;2023-07-13T05:20:59;101422.53;;;18.51
55038;BMP280;40937;53.594;10.034;2023-07-13T05:23:32;101419.75;;;18.72
55038;BMP280;40937;53.594;10.034;2023-07-13T05:25:59;101420.50;;;18.93
55038;BMP280;40937;53.594;10.034;2023-07-13T05:28:27;101422.94;;;18.89
55038;BMP280;40937;53.594;10.034;2023-07-13T05:30:55;101419.66;;;18.92
55038;BMP280;40937;53.594;10.034;2023-07-13T05:33:22;101427.13;;;18.95
55038;BMP280;40937;53.594;10.034;2023-07-13T05:35:56;101434.06;;;19.06
55038;BMP280;40937;53.594;10.034;2023-07-13T05:38:26;101433.50;;;19.04
55038;BMP280;40937;53.594;10.034;2023-07-13T05:40:57;101435.66;;;19.07
55038;BMP280;40937;53.594;10.034;2023-07-13T05:43:25;101433.47;;;19.15
55038;BMP280;40937;53.594;10.034;2023-07-13T05:45:56;101434.81;;;19.17
55038;BMP280;40937;53.594;10.034;2023-07-13T05:48:31;101429.13;;;19.24
55038;BMP280;40937;53.594;10.034;2023-07-13T05:50:58;101433.72;;;19.13
55038;BMP280;40937;53.594;10.034;2023-07-13T05:53:25;101435.66;;;19.07
55038;BMP280;40937;53.594;10.034;2023-07-13T05:55:55;101434.81;;;19.17
55038;BMP280;40937;53.594;10.034;2023-07-13T05:58:23;101436.13;;;19.15
55038;BMP280;40937;53.594;10.034;2023-07-13T06:00:59;101441.81;;;19.03
55038;BMP280;40937;53.594;10.034;2023-07-13T06:03:26;101438.91;;;18.94
55038;BMP280;40937;53.594;10.034;2023-07-13T06:05:53;101452.34;;;18.84
55038;BMP280;40937;53.594;10.034;2023-07-13T06:08:20;101453.69;;;18.81
55038;BMP280;40937;53.594;10.034;2023-07-13T06:10:48;101450.78;;;18.73
55038;BMP280;40937;53.594;10.034;2023-07-13T06:13:17;101456.69;;;18.70
55038;BMP280;40937;53.594;10.034;2023-07-13T06:15:48;101458.78;;;18.73
55038;BMP280;40937;53.594;10.034;2023-07-13T06:18:15;101456.94;;;18.68
55038;BMP280;40937;53.594;10.034;2023-07-13T06:20:42;101458.00;;;18.67
55038;BMP280;40937;53.594;10.034;2023-07-13T06:23:09;101457.47;;;18.70
55038;BMP280;40937;53.594;10.034;2023-07-13T06:25:37;101464.44;;;18.66
55038;BMP280;40937;53.594;10.034;2023-07-13T06:28:04;101454.28;;;18.58
55038;BMP280;40937;53.594;10.034;2023-07-13T06:30:32;101459.91;;;18.61
55038;BMP280;40937;53.594;10.034;2023-07-13T06:33:00;101459.66;;;18.53
55038;BMP280;40937;53.594;10.034;2023-07-13T06:35:27;101458.00;;;18.62
55038;BMP280;40937;53.594;10.034;2023-07-13T06:37:54;101454.03;;;18.54
55038;BMP280;40937;53.594;10.034;2023-07-13T06:40:21;101459.94;;;18.51
55038;BMP280;40937;53.594;10.034;2023-07-13T06:42:48;101463.91;;;18.59
55038;BMP280;40937;53.594;10.034;2023-07-13T06:45:16;101467.38;;;18.64
55038;BMP280;40937;53.594;10.034;2023-07-13T06:47:47;101469.00;;;18.60
55038;BMP280;40937;53.594;10.034;2023-07-13T06:50:15;101467.94;;;18.56
55038;BMP280;40937;53.594;10.034;2023-07-13T06:52:42;101472.47;;;18.66
55038;BMP280;40937;53.594;10.034;2023-07-13T06:55:09;101471.38;;;18.72
55038;BMP280;40937;53.594;10.034;2023-07-13T06:57:36;101465.75;;;18.69
55038;BMP280;40937;53.594;10.034;2023-07-13T07:00:06;101471.66;;;18.71
55038;BMP280;40937;53.594;10.034;2023-07-13T07:02:35;101469.22;;;18.74
55038;BMP280;40937;53.594;10.034;2023-07-13T07:05:06;101473.22;;;18.77
55038;BMP280;40937;53.594;10.034;2023-07-13T07:07:33;101471.59;;;18.76
55038;BMP280;40937;53.594;10.034;2023-07-13T07:10:00;101475.91;;;18.77
55038;BMP280;40937;53.594;10.034;2023-07-13T07:12:28;101479.59;;;18.81
55038;BMP280;40937;53.594;10.034;2023-07-13T07:14:57;101473.72;;;18.84
55038;BMP280;40937;53.594;10.034;2023-07-13T07:17:24;101485.97;;;18.90
55038;BMP280;40937;53.594;10.034;2023-07-13T07:19:52;101482.78;;;18.93
55038;BMP280;40937;53.594;10.034;2023-07-13T07:22:21;101480.09;;;18.93
55038;BMP280;40937;53.594;10.034;2023-07-13T07:24:48;101484.88;;;19.01
55038;BMP280;40937;53.594;10.034;2023-07-13T07:27:15;101477.94;;;19.00
55038;BMP280;40937;53.594;10.034;2023-07-13T07:29:43;101475.22;;;19.05
55038;BMP280;40937;53.594;10.034;2023-07-13T07:32:10;101470.13;;;19.09
55038;BMP280;40937;53.594;10.034;2023-07-13T07:34:37;101481.88;;;19.13
55038;BMP280;40937;53.594;10.034;2023-07-13T07:37:05;101478.63;;;19.21
55038;BMP280;40937;53.594;10.034;2023-07-13T07:39:33;101487.44;;;19.27
55038;BMP280;40937;53.594;10.034;2023-07-13T07:42:01;101485.84;;;19.26
55038;BMP280;40937;53.594;10.034;2023-07-13T07:44:28;101480.53;;;19.21
55038;BMP280;40937;53.594;10.034;2023-07-13T07:46:55;101471.97;;;19.19
55038;BMP280;40937;53.594;10.034;2023-07-13T07:49:22;101477.28;;;19.24
55038;BMP280;40937;53.594;10.034;2023-07-13T07:51:49;101479.41;;;19.27
55038;BMP280;40937;53.594;10.034;2023-07-13T07:54:17;101484.19;;;19.35
55038;BMP280;40937;53.594;10.034;2023-07-13T07:56:45;101472.91;;;19.43
55038;BMP280;40937;53.594;10.034;2023-07-13T07:59:13;101466.97;;;19.46
55038;BMP280;40937;53.594;10.034;2023-07-13T08:01:40;101470.16;;;19.54
55038;BMP280;40937;53.594;10.034;2023-07-13T08:04:07;101473.34;;;19.56
55038;BMP280;40937;53.594;10.034;2023-07-13T08:06:35;101476.00;;;19.61
55038;BMP280;40937;53.594;10.034;2023-07-13T08:09:02;101465.81;;;19.63
55038;BMP280;40937;53.594;10.034;2023-07-13T08:11:30;101462.63;;;19.56
55038;BMP280;40937;53.594;10.034;2023-07-13T08:13:59;101462.06;;;19.59
55038;BMP280;40937;53.594;10.034;2023-07-13T08:16:27;101466.31;;;19.65
55038;BMP280;40937;53.594;10.034;2023-07-13T08:18:54;101463.63;;;19.70
55038;BMP280;40937;53.594;10.034;2023-07-13T08:21:21;101463.53;;;19.80
55038;BMP280;40937;53.594;10.034;2023-07-13T08:23:49;101471.50;;;19.85
55038;BMP280;40937;53.594;10.034;2023-07-13T08:26:16;101471.78;;;19.89
55038;BMP280;40937;53.594;10.034;2023-07-13T08:28:43;101473.59;;;19.93
55038;BMP280;40937;53.594;10.034;2023-07-13T08:31:11;101471.16;;;19.97
55038;BMP280;40937;53.594;10.034;2023-07-13T08:33:39;101468.66;;;20.06
55038;BMP280;40937;53.594;10.034;2023-07-13T08:36:07;101480.91;;;20.12
55038;BMP280;40937;53.594;10.034;2023-07-13T08:38:34;101469.09;;;20.18
55038;BMP280;40937;53.594;10.034;2023-07-13T08:41:11;101481.38;;;20.24
55038;BMP280;40937;53.594;10.034;2023-07-13T08:43:39;101483.59;;;20.12
55038;BMP280;40937;53.594;10.034;2023-07-13T08:46:13;101477.19;;;20.08
55038;BMP280;40937;53.594;10.034;2023-07-13T08:48:44;101480.13;;;20.11
55038;BMP280;40937;53.594;10.034;2023-07-13T08:51:25;101476.94;;;20.09
55038;BMP280;40937;53.594;10.034;2023-07-13T08:53:56;101475.56;;;20.12
55038;BMP280;40937;53.594;10.034;2023-07-13T08:56:27;101472.81;;;20.17
55038;BMP280;40937;53.594;10.034;2023-07-13T08:58:57;101474.34;;;20.28
55038;BMP280;40937;53.594;10.034;2023-07-13T09:01:31;101470.66;;;20.19
55038;BMP280;40937;53.594;10.034;2023-07-13T09:04:05;101477.66;;;20.20
55038;BMP280;40937;53.594;10.034;2023-07-13T09:06:46;101473.31;;;20.24
55038;BMP280;40937;53.594;10.034;2023-07-13T09:09:21;101484.25;;;20.28
55038;BMP280;40937;53.594;10.034;2023-07-13T09:12:02;101477.22;;;20.37
55038;BMP280;40937;53.594;10.034;2023-07-13T09:14:42;101483.28;;;20.43
55038;BMP280;40937;53.594;10.034;2023-07-13T09:17:17;101468.31;;;20.42
55038;BMP280;40937;53.594;10.034;2023-07-13T09:19:48;101476.56;;;20.45
55038;BMP280;40937;53.594;10.034;2023-07-13T09:22:19;101478.09;;;20.51
55038;BMP280;40937;53.594;10.034;2023-07-13T09:24:53;101482.59;;;20.56
55038;BMP280;40937;53.594;10.034;2023-07-13T09:27:24;101487.47;;;20.54
55038;BMP280;40937;53.594;10.034;2023-07-13T09:29:58;101478.00;;;20.62
55038;BMP280;40937;53.594;10.034;2023-07-13T09:32:31;101479.81;;;20.66
55038;BMP280;40937;53.594;10.034;2023-07-13T09:34:59;101475.91;;;20.77
55038;BMP280;40937;53.594;10.034;2023-07-13T09:37:30;101475.38;;;20.81
55038;BMP280;40937;53.594;10.034;2023-07-13T09:40:01;101477.69;;;20.87
55038;BMP280;40937;53.594;10.034;2023-07-13T09:42:31;101477.84;;;20.96
55038;BMP280;40937;53.594;10.034;2023-07-13T09:45:01;101477.25;;;20.99
55038;BMP280;40937;53.594;10.034;2023-07-13T09:47:33;101472.41;;;21.01
55038;BMP280;40937;53.594;10.034;2023-07-13T09:50:08;101475.94;;;21.15
55038;BMP280;40937;53.594;10.034;2023-07-13T09:52:41;101488.72;;;21.24
55038;BMP280;40937;53.594;10.034;2023-07-13T09:55:26;101490.59;;;21.23
55038;BMP280;40937;53.594;10.034;2023-07-13T09:57:54;101484.94;;;21.25
55038;BMP280;40937;53.594;10.034;2023-07-13T10:00:23;101487.91;;;21.23
55038;BMP280;40937;53.594;10.034;2023-07-13T10:03:04;101493.53;;;21.27
55038;BMP280;40937;53.594;10.034;2023-07-13T10:05:39;101484.66;;;21.07
55038;BMP280;40937;53.594;10.034;2023-07-13T10:08:17;101487.25;;;21.12
55038;BMP280;40937;53.594;10.034;2023-07-13T10:10:47;101484.06;;;21.10
55038;BMP280;40937;53.594;10.034;2023-07-13T10:13:26;101489.91;;;21.17
55038;BMP280;40937;53.594;10.034;2023-07-13T10:15:55;101488.66;;;21.29
55038;BMP280;40937;53.594;10.034;2023-07-13T10:18:25;101489.94;;;21.31
55038;BMP280;40937;53.594;10.034;2023-07-13T10:20:54;101484.72;;;21.40
55038;BMP280;40937;53.594;10.034;2023-07-13T10:23:31;101483.34;;;21.42
55038;BMP280;40937;53.594;10.034;2023-07-13T10:25:59;101482.50;;;21.47
55038;BMP280;40937;53.594;10.034;2023-07-13T10:28:29;101468.66;;;21.54
55038;BMP280;40937;53.594;10.034;2023-07-13T10:30:58;101469.97;;;21.56
55038;BMP280;40937;53.594;10.034;2023-07-13T10:33:27;101475.16;;;21.53
55038;BMP280;40937;53.594;10.034;2023-07-13T10:36:00;101481.13;;;21.63
55038;BMP280;40937;53.594;10.034;2023-07-13T10:38:29;101462.84;;;21.65
55038;BMP280;40937;53.594;10.034;2023-07-13T10:40:59;101474.19;;;21.62
55038;BMP280;40937;53.594;10.034;2023-07-13T10:43:33;101479.00;;;21.60
55038;BMP280;40937;53.594;10.034;2023-07-13T10:46:03;101476.56;;;21.64
55038;BMP280;40937;53.594;10.034;2023-07-13T10:48:33;101470.69;;;21.62
55038;BMP280;40937;53.594;10.034;2023-07-13T10:51:05;101475.25;;;21.61
55038;BMP280;40937;53.594;10.034;2023-07-13T10:53:35;101472.50;;;21.67
55038;BMP280;40937;53.594;10.034;2023-07-13T10:56:10;101470.63;;;21.67
55038;BMP280;40937;53.594;10.034;2023-07-13T10:58:44;101477.81;;;21.72
55038;BMP280;40937;53.594;10.034;2023-07-13T11:01:14;101484.66;;;21.78
55038;BMP280;40937;53.594;10.034;2023-07-13T11:03:50;101469.47;;;21.87
55038;BMP280;40937;53.594;10.034;2023-07-13T11:06:33;101471.16;;;21.83
55038;BMP280;40937;53.594;10.034;2023-07-13T11:09:18;101473.66;;;21.93
55038;BMP280;40937;53.594;10.034;2023-07-13T11:11:46;101476.66;;;22.05
55038;BMP280;40937;53.594;10.034;2023-07-13T11:14:30;101474.47;;;22.07
55038;BMP280;40937;53.594;10.034;2023-07-13T11:16:57;101479.25;;;22.11
55038;BMP280;40937;53.594;10.034;2023-07-13T11:19:40;101471.69;;;22.26
55038;BMP280;40937;53.594;10.034;2023-07-13T11:22:26;101470.69;;;22.22
55038;BMP280;40937;53.594;10.034;2023-07-13T11:25:25;101463.31;;;22.28
55038;BMP280;40937;53.594;10.034;2023-07-13T11:28:16;101470.19;;;22.34
55038;BMP280;40937;53.594;10.034;2023-07-13T11:30:47;101464.72;;;22.39
55038;BMP280;40937;53.594;10.034;2023-07-13T11:33:17;101480.84;;;22.39
55038;BMP280;40937;53.594;10.034;2023-07-13T11:35:51;101476.06;;;22.36
55038;BMP280;40937;53.594;10.034;2023-07-13T11:38:22;101478.84;;;22.45
55038;BMP280;40937;53.594;10.034;2023-07-13T11:40:53;101477.97;;;22.49
55038;BMP280;40937;53.594;10.034;2023-07-13T11:43:21;101483.44;;;22.58
55038;BMP280;40937;53.594;10.034;2023-07-13T11:45:50;101476.53;;;22.66
55038;BMP280;40937;53.594;10.034;2023-07-13T11:48:23;101476.03;;;22.64
55038;BMP280;40937;53.594;10.034;2023-07-13T11:50:57;101479.84;;;22.63
55038;BMP280;40937;53.594;10.034;2023-07-13T11:53:27;101484.59;;;22.66
55038;BMP280;40937;53.594;10.034;2023-07-13T11:55:57;101497.16;;;22.70
55038;BMP280;40937;53.594;10.034;2023-07-13T11:58:25;101486.94;;;22.59
55038;BMP280;40937;53.594;10.034;2023-07-13T12:00:55;101498.75;;;22.58
55038;BMP280;40937;53.594;10.034;2023-07-13T12:03:25;101495.00;;;22.59
55038;BMP280;40937;53.594;10.034;2023-07-13T12:05:58;101495.56;;;22.56
55038;BMP280;40937;53.594;10.034;2023-07-13T12:08:27;101494.69;;;22.46
55038;BMP280;40937;53.594;10.034;2023-07-13T12:11:04;101497.38;;;22.46
55038;BMP280;40937;53.594;10.034;2023-07-13T12:13:36;101509.75;;;22.47
55038;BMP280;40937;53.594;10.034;2023-07-13T12:16:11;101514.69;;;22.40
55038;BMP280;40937;53.594;10.034;2023-07-13T12:18:39;101560.69;;;22.25
55038;BMP280;40937;53.594;10.034;2023-07-13T12:21:14;101615.63;;;21.48
55038;BMP280;40937;53.594;10.034;2023-07-13T12:23:44;101600.19;;;20.39
55038;BMP280;40937;53.594;10.034;2023-07-13T12:26:12;101595.84;;;19.69
55038;BMP280;40937;53.594;10.034;2023-07-13T12:28:45;101621.09;;;19.58
55038;BMP280;40937;53.594;10.034;2023-07-13T12:31:34;101606.13;;;19.52
55038;BMP280;40937;53.594;10.034;2023-07-13T12:34:07;101622.19;;;19.46
55038;BMP280;40937;53.594;10.034;2023-07-13T12:36:37;101624.31;;;19.49
55038;BMP280;40937;53.594;10.034;2023-07-13T12:39:13;101629.66;;;19.49
55038;BMP280;40937;53.594;10.034;2023-07-13T12:41:42;101622.00;;;19.22
55038;BMP280;40937;53.594;10.034;2023-07-13T12:44:12;101633.50;;;19.23
55038;BMP280;40937;53.594;10.034;2023-07-13T12:46:52;101629.72;;;19.39
55038;BMP280;40937;53.594;10.034;2023-07-13T12:49:24;101638.25;;;19.52
55038;BMP280;40937;53.594;10.034;2023-07-13T12:51:57;101638.22;;;19.57
55038;BMP280;40937;53.594;10.034;2023-07-13T12:54:26;101641.16;;;19.55
55038;BMP280;40937;53.594;10.034;2023-07-13T12:56:54;101644.06;;;19.69
55038;BMP280;40937;53.594;10.034;2023-07-13T12:59:25;101641.84;;;19.81
55038;BMP280;40937;53.594;10.034;2023-07-13T13:01:55;101642.16;;;19.75
55038;BMP280;40937;53.594;10.034;2023-07-13T13:04:23;101640.75;;;19.87
55038;BMP280;40937;53.594;10.034;2023-07-13T13:07:02;101653.31;;;19.92
55038;BMP280;40937;53.594;10.034;2023-07-13T13:09:30;101660.03;;;19.89
55038;BMP280;40937;53.594;10.034;2023-07-13T13:11:57;101664.81;;;19.92
55038;BMP280;40937;53.594;10.034;2023-07-13T13:14:25;101670.16;;;19.92
55038;BMP280;40937;53.594;10.034;2023-07-13T13:16:52;101655.19;;;19.86
55038;BMP280;40937;53.594;10.034;2023-07-13T13:19:22;101661.16;;;19.73
55038;BMP280;40937;53.594;10.034;2023-07-13T13:21:51;101670.00;;;19.74
55038;BMP280;40937;53.594;10.034;2023-07-13T13:24:21;101657.88;;;19.86
55038;BMP280;40937;53.594;10.034;2023-07-13T13:26:50;101661.31;;;19.97
55038;BMP280;40937;53.594;10.034;2023-07-13T13:29:19;101664.03;;;19.92
55038;BMP280;40937;53.594;10.034;2023-07-13T13:31:47;101656.22;;;19.96
55038;BMP280;40937;53.594;10.034;2023-07-13T13:34:16;101651.69;;;19.96
55038;BMP280;40937;53.594;10.034;2023-07-13T13:36:44;101653.50;;;20.06
55038;BMP280;40937;53.594;10.034;2023-07-13T13:39:21;101647.59;;;20.09
55038;BMP280;40937;53.594;10.034;2023-07-13T13:41:50;101653.69;;;20.20
55038;BMP280;40937;53.594;10.034;2023-07-13T13:44:20;101664.63;;;20.23
55038;BMP280;40937;53.594;10.034;2023-07-13T13:46:48;101673.44;;;20.29
55038;BMP280;40937;53.594;10.034;2023-07-13T13:49:18;101662.44;;;20.30
55038;BMP280;40937;53.594;10.034;2023-07-13T13:51:46;101664.06;;;20.26
55038;BMP280;40937;53.594;10.034;2023-07-13T13:54:14;101668.94;;;20.24
55038;BMP280;40937;53.594;10.034;2023-07-13T13:56:45;101673.44;;;20.29
55038;BMP280;40937;53.594;10.034;2023-07-13T13:59:13;101671.03;;;20.27